createdAt,value
2023-02-19T00:00:39.331Z,8.20
2023-02-19T00:03:27.643Z,8.20
2023-02-19T00:06:15.977Z,8.10
2023-02-19T00:09:05.090Z,8.10
2023-02-19T00:11:53.310Z,8.20
2023-02-19T00:14:41.524Z,8.20
2023-02-19T00:17:32.145Z,8.20
2023-02-19T00:20:21.325Z,8.20
2023-02-19T00:23:09.552Z,8.20
2023-02-19T00:26:06.005Z,8.20
2023-02-19T00:29:02.487Z,8.30
2023-02-19T00:31:51.206Z,8.30
2023-02-19T00:34:40.895Z,8.40
2023-02-19T00:37:29.154Z,8.40
2023-02-19T00:40:17.531Z,8.40
2023-02-19T00:43:05.819Z,8.50
2023-02-19T00:45:54.009Z,8.50
2023-02-19T00:48:42.370Z,8.60
2023-02-19T00:51:34.869Z,8.60
2023-02-19T00:54:23.563Z,8.60
2023-02-19T00:57:11.804Z,8.60
2023-02-19T01:00:00.004Z,8.60
2023-02-19T01:02:48.310Z,8.60
2023-02-19T01:05:36.514Z,8.60
2023-02-19T01:08:26.180Z,8.70
2023-02-19T01:11:15.194Z,8.70
2023-02-19T01:14:04.992Z,8.80
2023-02-19T01:16:53.319Z,8.80
2023-02-19T01:19:41.567Z,8.80
2023-02-19T01:22:29.786Z,8.80
2023-02-19T01:25:19.582Z,8.80
2023-02-19T01:28:07.892Z,8.80
2023-02-19T01:30:56.145Z,8.70
2023-02-19T01:33:46.850Z,8.70
2023-02-19T01:36:37.052Z,8.70
2023-02-19T01:39:25.241Z,8.70
2023-02-19T01:42:17.571Z,8.70
2023-02-19T01:45:28.583Z,8.70
2023-02-19T01:48:20.702Z,8.70
2023-02-19T01:51:13.864Z,8.70
2023-02-19T01:54:06.004Z,8.70
2023-02-19T01:56:56.541Z,8.70
2023-02-19T01:59:47.104Z,8.70
2023-02-19T02:02:35.530Z,8.70
2023-02-19T02:05:33.915Z,8.70
2023-02-19T02:08:54.071Z,8.70
2023-02-19T02:11:46.182Z,8.70
2023-02-19T02:14:37.260Z,8.70
2023-02-19T02:17:27.533Z,8.70
2023-02-19T02:20:32.909Z,8.80
2023-02-19T02:23:31.045Z,8.80
2023-02-19T02:26:36.699Z,8.70
2023-02-19T02:30:07.605Z,8.60
2023-02-19T02:33:01.041Z,8.60
2023-02-19T02:35:53.804Z,8.50
2023-02-19T02:38:45.016Z,8.50
2023-02-19T02:41:34.359Z,8.60
2023-02-19T02:44:22.582Z,8.60
2023-02-19T02:47:32.427Z,8.50
2023-02-19T02:50:25.951Z,8.50
2023-02-19T02:53:36.284Z,8.50
2023-02-19T02:56:26.382Z,8.40
2023-02-19T02:59:16.666Z,8.40
2023-02-19T03:02:14.446Z,8.40
2023-02-19T03:05:25.382Z,8.40
2023-02-19T03:08:17.340Z,8.40
2023-02-19T03:11:21.512Z,8.40
2023-02-19T03:14:31.448Z,8.40
2023-02-19T03:17:41.054Z,8.40
2023-02-19T03:20:33.543Z,8.40
2023-02-19T03:23:45.325Z,8.30
2023-02-19T03:26:34.040Z,8.30
2023-02-19T03:29:25.879Z,8.20
2023-02-19T03:32:19.125Z,8.20
2023-02-19T03:35:12.533Z,8.20
2023-02-19T03:38:07.184Z,8.20
2023-02-19T03:41:00.879Z,8.20
2023-02-19T03:43:53.702Z,8.20
2023-02-19T03:46:49.081Z,8.20
2023-02-19T03:49:46.709Z,8.10
2023-02-19T03:52:42.779Z,8.10
2023-02-19T03:55:37.987Z,8.00
2023-02-19T03:58:31.263Z,7.80
2023-02-19T04:01:25.741Z,7.60
2023-02-19T04:04:19.314Z,7.40
2023-02-19T04:07:08.292Z,7.20
2023-02-19T04:09:56.947Z,7.10
2023-02-19T04:12:52.557Z,7.00
2023-02-19T04:15:43.967Z,7.00
2023-02-19T04:18:37.257Z,6.80
2023-02-19T04:21:25.790Z,6.70
2023-02-19T04:24:18.834Z,6.60
2023-02-19T04:27:09.872Z,6.60
2023-02-19T04:29:59.454Z,6.50
2023-02-19T04:32:47.669Z,6.40
2023-02-19T04:35:35.884Z,6.30
2023-02-19T04:38:24.263Z,6.30
2023-02-19T04:41:12.781Z,6.20
2023-02-19T04:44:01.178Z,6.30
2023-02-19T04:46:50.757Z,6.30
2023-02-19T04:49:38.997Z,6.30
2023-02-19T04:52:27.259Z,6.30
2023-02-19T04:55:15.549Z,6.10
2023-02-19T04:58:03.771Z,6.00
2023-02-19T05:00:54.846Z,5.90
2023-02-19T05:03:44.964Z,5.70
2023-02-19T05:06:33.243Z,5.70
2023-02-19T05:09:21.687Z,5.60
2023-02-19T05:12:09.920Z,5.50
2023-02-19T05:14:58.286Z,5.40
2023-02-19T05:17:46.530Z,5.30
2023-02-19T05:20:36.088Z,5.30
2023-02-19T05:23:24.339Z,5.30
2023-02-19T05:26:17.860Z,5.30
2023-02-19T05:29:06.100Z,5.30
2023-02-19T05:31:54.456Z,5.20
2023-02-19T05:34:42.790Z,5.20
2023-02-19T05:37:32.339Z,5.30
2023-02-19T05:40:20.552Z,5.30
2023-02-19T05:43:09.232Z,5.30
2023-02-19T05:45:59.508Z,5.30
2023-02-19T05:48:48.088Z,5.30
2023-02-19T05:51:36.321Z,5.30
2023-02-19T05:54:25.865Z,5.30
2023-02-19T05:57:14.062Z,5.20
2023-02-19T06:00:02.229Z,5.10
2023-02-19T06:02:50.459Z,5.10
2023-02-19T06:05:38.709Z,5.00
2023-02-19T06:08:26.922Z,5.00
2023-02-19T06:11:16.739Z,4.90
2023-02-19T06:14:05.100Z,4.90
2023-02-19T06:16:53.290Z,4.80
2023-02-19T06:19:41.575Z,4.70
2023-02-19T06:22:29.893Z,4.60
2023-02-19T06:25:18.256Z,4.60
2023-02-19T06:28:09.415Z,4.60
2023-02-19T06:30:59.823Z,4.60
2023-02-19T06:33:48.283Z,4.50
2023-02-19T06:36:36.547Z,4.40
2023-02-19T06:39:24.799Z,4.40
2023-02-19T06:42:12.978Z,4.40
2023-02-19T06:45:02.551Z,4.30
2023-02-19T06:47:50.736Z,4.30
2023-02-19T06:50:38.964Z,4.30
2023-02-19T06:53:27.597Z,4.30
2023-02-19T06:56:27.423Z,4.30
2023-02-19T06:59:17.792Z,4.20
2023-02-19T07:02:07.405Z,4.20
2023-02-19T07:04:55.589Z,4.20
2023-02-19T07:07:46.110Z,4.20
2023-02-19T07:10:34.296Z,4.20
2023-02-19T07:13:22.546Z,4.30
2023-02-19T07:16:11.554Z,4.30
2023-02-19T07:19:01.955Z,4.30
2023-02-19T07:21:50.254Z,4.40
2023-02-19T07:24:38.549Z,4.40
2023-02-19T07:27:26.748Z,4.40
2023-02-19T07:30:15.158Z,4.40
2023-02-19T07:33:03.515Z,4.50
2023-02-19T07:35:53.223Z,4.60
2023-02-19T07:38:41.515Z,4.60
2023-02-19T07:41:29.811Z,4.70
2023-02-19T07:44:18.191Z,4.70
2023-02-19T07:47:06.396Z,4.80
2023-02-19T07:49:58.609Z,4.80
2023-02-19T07:52:48.141Z,4.90
2023-02-19T07:55:36.548Z,4.90
2023-02-19T07:58:24.760Z,5.00
2023-02-19T08:01:16.253Z,5.00
2023-02-19T08:04:03.544Z,5.00
2023-02-19T08:06:53.709Z,5.00
2023-02-19T08:09:43.263Z,4.90
2023-02-19T08:12:49.241Z,4.90
2023-02-19T08:15:37.467Z,4.80
2023-02-19T08:18:27.080Z,4.80
2023-02-19T08:21:18.152Z,4.90
2023-02-19T08:24:07.077Z,4.80
2023-02-19T08:26:56.684Z,4.90
2023-02-19T08:29:45.004Z,4.90
2023-02-19T08:32:33.301Z,4.90
2023-02-19T08:35:21.689Z,5.00
2023-02-19T08:38:10.955Z,5.10
2023-02-19T08:40:59.313Z,5.10
2023-02-19T08:43:48.880Z,5.10
2023-02-19T08:46:37.161Z,5.20
2023-02-19T08:49:27.388Z,5.20
2023-02-19T08:52:15.627Z,5.30
2023-02-19T08:55:04.283Z,5.30
2023-02-19T08:57:53.042Z,5.30
2023-02-19T09:00:42.590Z,5.40
2023-02-19T09:03:30.839Z,5.30
2023-02-19T09:06:21.187Z,5.40
2023-02-19T09:09:10.060Z,5.30
2023-02-19T09:11:58.238Z,5.40
2023-02-19T09:14:46.717Z,5.50
2023-02-19T09:17:36.313Z,5.50
2023-02-19T09:20:24.530Z,5.50
2023-02-19T09:23:12.757Z,5.50
2023-02-19T09:26:03.247Z,5.60
2023-02-19T09:28:51.476Z,5.70
2023-02-19T09:31:39.804Z,5.60
2023-02-19T09:34:30.338Z,5.70
2023-02-19T09:37:18.576Z,5.70
2023-02-19T09:40:07.397Z,5.80
2023-02-19T09:42:55.635Z,5.90
2023-02-19T09:45:44.209Z,6.00
2023-02-19T09:48:33.034Z,6.00
2023-02-19T09:51:23.903Z,6.10
2023-02-19T09:54:18.985Z,6.30
2023-02-19T09:57:12.524Z,6.40
2023-02-19T10:00:05.662Z,6.50
2023-02-19T10:02:55.222Z,6.60
2023-02-19T10:05:43.771Z,6.60
2023-02-19T10:08:37.785Z,6.60
2023-02-19T10:11:27.377Z,6.50
2023-02-19T10:14:20.270Z,6.50
2023-02-19T10:17:15.062Z,6.60
2023-02-19T10:20:04.644Z,6.60
2023-02-19T10:22:56.637Z,6.60
2023-02-19T10:25:50.088Z,6.60
2023-02-19T10:28:38.873Z,6.70
2023-02-19T10:31:27.437Z,6.80
2023-02-19T10:34:22.252Z,6.80
2023-02-19T10:37:15.156Z,6.80
2023-02-19T10:40:03.834Z,6.90
2023-02-19T10:42:55.616Z,6.90
2023-02-19T10:45:49.136Z,6.80
2023-02-19T10:48:41.907Z,6.90
2023-02-19T10:51:35.990Z,7.00
2023-02-19T10:54:29.762Z,7.00
2023-02-19T10:57:34.731Z,7.10
2023-02-19T11:00:26.986Z,7.10
2023-02-19T11:03:21.722Z,7.20
2023-02-19T11:06:12.678Z,7.30
2023-02-19T11:09:02.092Z,7.40
2023-02-19T11:11:52.673Z,7.40
2023-02-19T11:14:44.441Z,7.50
2023-02-19T11:17:34.415Z,7.60
2023-02-19T11:20:22.809Z,7.60
2023-02-19T11:23:16.912Z,7.60
2023-02-19T11:26:07.936Z,7.50
2023-02-19T11:29:01.046Z,7.50
2023-02-19T11:31:49.334Z,7.60
2023-02-19T11:34:39.290Z,7.70
2023-02-19T11:37:27.494Z,7.70
2023-02-19T11:40:15.800Z,7.60
2023-02-19T11:43:11.638Z,7.70
2023-02-19T11:46:05.689Z,7.90
2023-02-19T11:48:57.907Z,8.20
2023-02-19T11:52:01.152Z,8.50
2023-02-19T11:54:55.005Z,8.50
2023-02-19T11:57:47.342Z,8.30
2023-02-19T12:00:45.780Z,8.30
2023-02-19T12:04:03.088Z,8.30
2023-02-19T12:07:04.597Z,8.40
2023-02-19T12:10:04.272Z,8.60
2023-02-19T12:13:00.892Z,8.70
2023-02-19T12:16:14.898Z,9.20
2023-02-19T12:19:39.265Z,9.80
2023-02-19T12:22:31.693Z,10.00
2023-02-19T12:25:33.426Z,10.40
2023-02-19T12:28:36.150Z,10.50
2023-02-19T12:31:57.121Z,10.30
2023-02-19T12:35:09.673Z,9.90
2023-02-19T12:38:09.915Z,9.70
2023-02-19T12:41:13.219Z,9.70
2023-02-19T12:44:06.664Z,10.00
2023-02-19T12:47:01.311Z,10.40
2023-02-19T12:49:59.589Z,10.80
2023-02-19T12:52:51.745Z,11.10
2023-02-19T12:55:44.181Z,11.40
2023-02-19T12:58:43.699Z,11.70
2023-02-19T13:01:38.600Z,12.10
2023-02-19T13:04:35.364Z,12.40
2023-02-19T13:07:29.323Z,12.50
2023-02-19T13:10:26.076Z,12.30
2023-02-19T13:13:22.794Z,12.00
2023-02-19T13:16:18.597Z,12.00
2023-02-19T13:19:07.186Z,12.40
2023-02-19T13:22:22.041Z,12.20
2023-02-19T13:25:12.153Z,12.10
2023-02-19T13:28:11.873Z,11.70
2023-02-19T13:31:21.955Z,11.60
2023-02-19T13:34:21.394Z,11.90
2023-02-19T13:37:11.240Z,11.60
2023-02-19T13:40:03.977Z,11.40
2023-02-19T13:42:57.859Z,11.70
2023-02-19T13:45:47.530Z,12.30
2023-02-19T13:48:38.718Z,13.30
2023-02-19T13:51:48.909Z,13.80
2023-02-19T13:54:40.258Z,14.20
2023-02-19T13:57:29.708Z,14.60
2023-02-19T14:00:49.451Z,14.60
2023-02-19T14:03:50.856Z,14.70
2023-02-19T14:07:12.577Z,14.90
2023-02-19T14:10:01.853Z,15.30
2023-02-19T14:12:50.097Z,15.50
2023-02-19T14:15:44.801Z,15.50
2023-02-19T14:18:45.633Z,14.40
2023-02-19T14:21:37.632Z,13.20
2023-02-19T14:24:26.021Z,13.30
2023-02-19T14:27:14.431Z,14.20
2023-02-19T14:30:03.300Z,14.40
2023-02-19T14:33:02.805Z,15.10
2023-02-19T14:36:03.569Z,15.80
2023-02-19T14:38:54.520Z,16.00
2023-02-19T14:41:44.058Z,15.60
2023-02-19T14:44:47.952Z,15.70
2023-02-19T14:47:38.733Z,15.40
2023-02-19T14:50:30.901Z,15.00
2023-02-19T14:53:23.428Z,14.80
2023-02-19T14:56:21.773Z,14.40
2023-02-19T14:59:23.805Z,14.10
2023-02-19T15:02:17.252Z,13.80
2023-02-19T15:05:16.386Z,13.30
2023-02-19T15:08:09.812Z,12.60
2023-02-19T15:11:00.183Z,12.10
2023-02-19T15:13:53.264Z,11.80
2023-02-19T15:16:41.542Z,11.10
2023-02-19T15:19:33.116Z,10.60
2023-02-19T15:22:23.510Z,10.10
2023-02-19T15:25:18.112Z,9.80
2023-02-19T15:28:34.326Z,9.70
2023-02-19T15:31:22.722Z,9.50
2023-02-19T15:34:18.397Z,9.20
2023-02-19T15:37:09.201Z,8.90
2023-02-19T15:39:59.390Z,8.70
2023-02-19T15:42:48.852Z,8.50
2023-02-19T15:45:42.481Z,8.30
2023-02-19T15:48:36.670Z,8.20
2023-02-19T15:51:28.182Z,8.00
2023-02-19T15:54:27.116Z,7.80
2023-02-19T15:57:20.101Z,7.70
2023-02-19T16:00:15.617Z,7.70
2023-02-19T16:03:06.487Z,7.70
2023-02-19T16:06:02.360Z,7.50
2023-02-19T16:09:02.754Z,7.40
2023-02-19T16:11:53.028Z,7.40
2023-02-19T16:14:41.330Z,7.40
2023-02-19T16:17:29.613Z,7.30
2023-02-19T16:20:23.301Z,7.30
2023-02-19T16:23:15.097Z,7.30
2023-02-19T16:26:04.063Z,7.30
2023-02-19T16:28:54.011Z,7.20
2023-02-19T16:31:49.874Z,7.10
2023-02-19T16:34:43.023Z,6.90
2023-02-19T16:37:35.435Z,6.80
2023-02-19T16:41:03.133Z,6.60
2023-02-19T16:43:51.335Z,6.60
2023-02-19T16:46:40.940Z,6.50
2023-02-19T16:49:29.220Z,6.40
2023-02-19T16:52:17.879Z,6.30
2023-02-19T16:55:14.478Z,6.20
2023-02-19T16:58:03.067Z,6.00
2023-02-19T17:00:51.318Z,6.00
2023-02-19T17:03:40.194Z,5.90
2023-02-19T17:06:28.652Z,5.80
2023-02-19T17:09:16.869Z,5.70
2023-02-19T17:12:10.522Z,5.60
2023-02-19T17:14:58.743Z,5.60
2023-02-19T17:17:47.128Z,5.50
2023-02-19T17:20:37.239Z,5.40
2023-02-19T17:23:25.496Z,5.50
2023-02-19T17:26:15.497Z,5.40
2023-02-19T17:29:06.909Z,5.40
2023-02-19T17:31:55.162Z,5.40
2023-02-19T17:34:43.522Z,5.40
2023-02-19T17:37:31.718Z,5.40
2023-02-19T17:40:32.239Z,5.40
2023-02-19T17:43:21.583Z,5.40
2023-02-19T17:46:15.474Z,5.40
2023-02-19T17:49:03.836Z,5.40
2023-02-19T17:51:52.011Z,5.30
2023-02-19T17:54:40.416Z,5.30
2023-02-19T17:57:33.426Z,5.20
2023-02-19T18:00:23.550Z,5.10
2023-02-19T18:03:13.259Z,5.00
2023-02-19T18:06:01.511Z,4.90
2023-02-19T18:08:51.298Z,4.90
2023-02-19T18:11:39.656Z,4.90
2023-02-19T18:14:29.032Z,4.80
2023-02-19T18:17:17.244Z,4.90
2023-02-19T18:20:08.340Z,4.80
2023-02-19T18:22:57.317Z,4.90
2023-02-19T18:25:45.615Z,4.80
2023-02-19T18:28:35.570Z,4.80
2023-02-19T18:31:24.219Z,4.80
2023-02-19T18:34:18.295Z,4.80
2023-02-19T18:37:07.982Z,4.70
2023-02-19T18:39:56.222Z,4.60
2023-02-19T18:42:44.442Z,4.60
2023-02-19T18:45:35.335Z,4.60
2023-02-19T18:48:23.759Z,4.60
2023-02-19T18:51:12.984Z,4.60
2023-02-19T18:54:04.063Z,4.70
2023-02-19T18:56:52.490Z,4.70
2023-02-19T18:59:41.877Z,4.70
2023-02-19T19:02:42.690Z,4.70
2023-02-19T19:05:36.794Z,4.60
2023-02-19T19:08:25.352Z,4.50
2023-02-19T19:11:14.959Z,4.50
2023-02-19T19:14:04.254Z,4.50
2023-02-19T19:16:52.667Z,4.50
2023-02-19T19:19:41.303Z,4.50
2023-02-19T19:22:29.518Z,4.50
2023-02-19T19:25:18.121Z,4.50
2023-02-19T19:28:07.769Z,4.40
2023-02-19T19:30:56.044Z,4.40
2023-02-19T19:33:46.552Z,4.50
2023-02-19T19:36:35.167Z,4.40
2023-02-19T19:39:23.417Z,4.40
2023-02-19T19:42:11.676Z,4.30
2023-02-19T19:45:01.555Z,4.20
2023-02-19T19:47:50.013Z,4.20
2023-02-19T19:50:38.372Z,4.10
2023-02-19T19:53:26.631Z,4.10
2023-02-19T19:56:14.937Z,4.10
2023-02-19T19:59:03.170Z,4.10
2023-02-19T20:01:54.725Z,4.00
2023-02-19T20:04:45.103Z,4.10
2023-02-19T20:07:33.902Z,4.10
2023-02-19T20:10:23.162Z,4.10
2023-02-19T20:13:11.379Z,4.10
2023-02-19T20:15:59.626Z,4.10
2023-02-19T20:18:49.203Z,4.10
2023-02-19T20:21:37.419Z,4.10
2023-02-19T20:24:28.689Z,4.10
2023-02-19T20:27:16.791Z,4.10
2023-02-19T20:30:05.940Z,4.10
2023-02-19T20:32:54.533Z,4.10
2023-02-19T20:35:44.095Z,4.10
2023-02-19T20:38:32.323Z,4.10
2023-02-19T20:41:20.677Z,4.00
2023-02-19T20:44:08.905Z,4.10
2023-02-19T20:46:58.883Z,4.00
2023-02-19T20:49:47.282Z,4.10
2023-02-19T20:52:36.934Z,4.10
2023-02-19T20:55:26.010Z,4.00
2023-02-19T20:58:14.252Z,4.00
2023-02-19T21:01:02.986Z,4.00
2023-02-19T21:03:51.160Z,4.00
2023-02-19T21:06:39.410Z,4.10
2023-02-19T21:09:28.959Z,4.10
2023-02-19T21:12:17.215Z,4.10
2023-02-19T21:15:06.254Z,4.10
2023-02-19T21:17:54.480Z,4.00
2023-02-19T21:20:42.697Z,4.10
2023-02-19T21:23:30.963Z,4.10
2023-02-19T21:26:20.608Z,4.10
2023-02-19T21:29:10.698Z,4.10
2023-02-19T21:31:59.360Z,4.10
2023-02-19T21:34:47.611Z,4.10
2023-02-19T21:37:35.864Z,4.10
2023-02-19T21:40:25.279Z,4.10
2023-02-19T21:43:14.880Z,4.20
2023-02-19T21:46:03.171Z,4.10
2023-02-19T21:48:52.066Z,4.10
2023-02-19T21:51:41.696Z,4.10
2023-02-19T21:54:30.047Z,4.10
2023-02-19T21:57:18.244Z,4.00
2023-02-19T22:00:09.221Z,4.00
2023-02-19T22:02:57.519Z,4.10
2023-02-19T22:05:45.784Z,4.10
2023-02-19T22:08:34.002Z,4.10
2023-02-19T22:11:22.303Z,4.00
2023-02-19T22:14:10.597Z,4.00
2023-02-19T22:17:00.136Z,4.10
2023-02-19T22:19:48.474Z,4.00
2023-02-19T22:22:36.656Z,4.00
2023-02-19T22:25:24.894Z,4.00
2023-02-19T22:28:13.161Z,4.00
2023-02-19T22:31:01.397Z,4.00
2023-02-19T22:33:51.564Z,4.00
2023-02-19T22:36:40.391Z,3.90
2023-02-19T22:39:28.681Z,3.90
2023-02-19T22:42:17.050Z,3.90
2023-02-19T22:45:05.764Z,3.90
2023-02-19T22:47:56.264Z,3.90
2023-02-19T22:50:45.767Z,3.90
2023-02-19T22:53:34.013Z,3.90
2023-02-19T22:56:23.787Z,3.90
2023-02-19T22:59:12.097Z,3.80
2023-02-19T23:02:00.324Z,3.90
2023-02-19T23:04:48.567Z,3.90
2023-02-19T23:07:38.120Z,4.00
2023-02-19T23:10:27.089Z,4.00
2023-02-19T23:13:15.336Z,4.00
2023-02-19T23:16:04.687Z,4.00
2023-02-19T23:18:53.095Z,4.00
2023-02-19T23:21:42.473Z,4.00
2023-02-19T23:24:32.591Z,4.10
2023-02-19T23:27:20.808Z,4.10
2023-02-19T23:30:09.873Z,4.10
2023-02-19T23:32:58.114Z,4.10
2023-02-19T23:35:46.360Z,4.20
2023-02-19T23:38:34.654Z,4.20
2023-02-19T23:41:24.192Z,4.20
2023-02-19T23:44:12.423Z,4.20
2023-02-19T23:47:00.914Z,4.30
2023-02-19T23:49:49.143Z,4.40
2023-02-19T23:52:37.355Z,4.40
2023-02-19T23:55:25.832Z,4.40
2023-02-19T23:58:15.706Z,4.50
